Aviation Digital Data Service (ADDS)

Output produced by METARs form (0028 UTC 29 June 2017)
found at http://aviationweather.gov/adds/metars/
 
KARA 282322Z 2900/2924 13008KT P6SM VCSH FEW008 BKN035 OVC100 
     TEMPO 2900/2903 SCT008 BKN025 OVC050 
     FM290300 VRB05KT P6SM SCT015 OVC100 
     TEMPO 2903/2907 BKN020 BKN100 
     FM290900 15008KT P6SM -SHRA OVC015